sensor_id;sensor_type;location;lat;lon;timestamp;P1;durP1;ratioP1;P2;durP2;ratioP2
11931;SDS011;6025;51.368;6.788;2023-05-07T00:01:14;3.65;;;3.22;;
11931;SDS011;6025;51.368;6.788;2023-05-07T00:06:06;4.57;;;3.30;;
11931;SDS011;6025;51.368;6.788;2023-05-07T00:10:59;5.68;;;3.25;;
11931;SDS011;6025;51.368;6.788;2023-05-07T00:15:55;3.67;;;3.38;;
11931;SDS011;6025;51.368;6.788;2023-05-07T00:20:53;5.07;;;3.35;;
11931;SDS011;6025;51.368;6.788;2023-05-07T00:25:50;4.00;;;3.03;;
11931;SDS011;6025;51.368;6.788;2023-05-07T00:30:42;4.10;;;3.60;;
11931;SDS011;6025;51.368;6.788;2023-05-07T00:35:36;3.92;;;3.10;;
11931;SDS011;6025;51.368;6.788;2023-05-07T00:40:30;4.07;;;3.75;;
11931;SDS011;6025;51.368;6.788;2023-05-07T00:45:23;3.97;;;3.60;;
11931;SDS011;6025;51.368;6.788;2023-05-07T00:50:18;3.75;;;3.35;;
11931;SDS011;6025;51.368;6.788;2023-05-07T00:55:12;3.83;;;3.45;;
11931;SDS011;6025;51.368;6.788;2023-05-07T01:00:07;4.32;;;3.58;;
11931;SDS011;6025;51.368;6.788;2023-05-07T01:05:05;4.22;;;3.80;;
11931;SDS011;6025;51.368;6.788;2023-05-07T01:10:00;4.13;;;3.72;;
11931;SDS011;6025;51.368;6.788;2023-05-07T01:14:53;7.25;;;3.63;;
11931;SDS011;6025;51.368;6.788;2023-05-07T01:19:46;5.10;;;4.03;;
11931;SDS011;6025;51.368;6.788;2023-05-07T01:24:40;4.60;;;4.13;;
11931;SDS011;6025;51.368;6.788;2023-05-07T01:29:36;7.25;;;4.30;;
11931;SDS011;6025;51.368;6.788;2023-05-07T01:34:30;4.60;;;3.97;;
11931;SDS011;6025;51.368;6.788;2023-05-07T01:39:26;5.78;;;3.67;;
11931;SDS011;6025;51.368;6.788;2023-05-07T01:44:28;4.28;;;3.88;;
11931;SDS011;6025;51.368;6.788;2023-05-07T01:49:21;4.20;;;3.67;;
11931;SDS011;6025;51.368;6.788;2023-05-07T01:54:14;5.78;;;3.78;;
11931;SDS011;6025;51.368;6.788;2023-05-07T01:59:10;4.20;;;3.60;;
11931;SDS011;6025;51.368;6.788;2023-05-07T02:04:05;5.03;;;3.65;;
11931;SDS011;6025;51.368;6.788;2023-05-07T02:08:59;5.22;;;4.03;;
11931;SDS011;6025;51.368;6.788;2023-05-07T02:13:51;5.75;;;4.10;;
11931;SDS011;6025;51.368;6.788;2023-05-07T02:18:44;6.72;;;4.22;;
11931;SDS011;6025;51.368;6.788;2023-05-07T02:23:40;4.97;;;3.60;;
11931;SDS011;6025;51.368;6.788;2023-05-07T02:28:34;4.35;;;3.95;;
11931;SDS011;6025;51.368;6.788;2023-05-07T02:33:28;4.40;;;4.03;;
11931;SDS011;6025;51.368;6.788;2023-05-07T02:38:25;5.32;;;4.78;;
11931;SDS011;6025;51.368;6.788;2023-05-07T02:43:19;5.15;;;4.63;;
11931;SDS011;6025;51.368;6.788;2023-05-07T02:48:13;6.53;;;4.65;;
11931;SDS011;6025;51.368;6.788;2023-05-07T02:53:08;4.30;;;3.90;;
11931;SDS011;6025;51.368;6.788;2023-05-07T02:58:02;4.85;;;4.40;;
11931;SDS011;6025;51.368;6.788;2023-05-07T03:02:56;4.38;;;3.97;;
11931;SDS011;6025;51.368;6.788;2023-05-07T03:07:48;5.07;;;4.22;;
11931;SDS011;6025;51.368;6.788;2023-05-07T03:12:44;5.03;;;4.35;;
11931;SDS011;6025;51.368;6.788;2023-05-07T03:17:37;5.18;;;4.70;;
11931;SDS011;6025;51.368;6.788;2023-05-07T03:22:34;6.03;;;4.35;;
11931;SDS011;6025;51.368;6.788;2023-05-07T03:27:27;4.93;;;4.30;;
11931;SDS011;6025;51.368;6.788;2023-05-07T03:32:19;4.97;;;4.05;;
11931;SDS011;6025;51.368;6.788;2023-05-07T03:37:11;5.00;;;4.50;;
11931;SDS011;6025;51.368;6.788;2023-05-07T03:42:07;6.18;;;4.00;;
11931;SDS011;6025;51.368;6.788;2023-05-07T03:47:00;5.38;;;4.53;;
11931;SDS011;6025;51.368;6.788;2023-05-07T03:51:54;5.30;;;4.60;;
11931;SDS011;6025;51.368;6.788;2023-05-07T03:56:52;4.70;;;4.30;;
11931;SDS011;6025;51.368;6.788;2023-05-07T04:01:46;5.32;;;4.32;;
11931;SDS011;6025;51.368;6.788;2023-05-07T04:06:50;5.32;;;4.32;;
11931;SDS011;6025;51.368;6.788;2023-05-07T04:11:45;5.40;;;4.90;;
11931;SDS011;6025;51.368;6.788;2023-05-07T04:16:37;6.88;;;4.25;;
11931;SDS011;6025;51.368;6.788;2023-05-07T04:21:33;5.25;;;4.10;;
11931;SDS011;6025;51.368;6.788;2023-05-07T04:26:28;5.65;;;4.50;;
11931;SDS011;6025;51.368;6.788;2023-05-07T04:31:21;7.25;;;4.30;;
11931;SDS011;6025;51.368;6.788;2023-05-07T04:36:15;4.90;;;4.35;;
11931;SDS011;6025;51.368;6.788;2023-05-07T04:41:09;4.82;;;3.88;;
11931;SDS011;6025;51.368;6.788;2023-05-07T04:46:04;5.60;;;4.50;;
11931;SDS011;6025;51.368;6.788;2023-05-07T04:50:56;4.72;;;3.90;;
11931;SDS011;6025;51.368;6.788;2023-05-07T04:55:54;5.43;;;4.10;;
11931;SDS011;6025;51.368;6.788;2023-05-07T05:01:02;4.20;;;3.80;;
11931;SDS011;6025;51.368;6.788;2023-05-07T05:05:59;4.68;;;3.72;;
11931;SDS011;6025;51.368;6.788;2023-05-07T05:10:54;4.55;;;3.85;;
11931;SDS011;6025;51.368;6.788;2023-05-07T05:15:47;5.05;;;4.03;;
11931;SDS011;6025;51.368;6.788;2023-05-07T05:20:48;5.95;;;4.00;;
11931;SDS011;6025;51.368;6.788;2023-05-07T05:25:49;4.88;;;4.47;;
11931;SDS011;6025;51.368;6.788;2023-05-07T05:30:49;7.03;;;4.20;;
11931;SDS011;6025;51.368;6.788;2023-05-07T05:35:44;5.15;;;3.95;;
11931;SDS011;6025;51.368;6.788;2023-05-07T05:40:41;6.00;;;5.00;;
11931;SDS011;6025;51.368;6.788;2023-05-07T05:45:36;5.80;;;5.20;;
11931;SDS011;6025;51.368;6.788;2023-05-07T05:50:30;6.20;;;5.60;;
11931;SDS011;6025;51.368;6.788;2023-05-07T05:55:25;9.75;;;4.82;;
11931;SDS011;6025;51.368;6.788;2023-05-07T06:00:28;8.45;;;5.00;;
11931;SDS011;6025;51.368;6.788;2023-05-07T06:05:28;6.55;;;4.60;;
11931;SDS011;6025;51.368;6.788;2023-05-07T06:10:23;4.72;;;4.25;;
11931;SDS011;6025;51.368;6.788;2023-05-07T06:15:18;6.03;;;3.92;;
11931;SDS011;6025;51.368;6.788;2023-05-07T06:25:31;5.25;;;3.58;;
11931;SDS011;6025;51.368;6.788;2023-05-07T06:30:34;4.38;;;3.70;;
11931;SDS011;6025;51.368;6.788;2023-05-07T06:35:30;5.10;;;3.50;;
11931;SDS011;6025;51.368;6.788;2023-05-07T06:40:25;4.53;;;3.40;;
11931;SDS011;6025;51.368;6.788;2023-05-07T06:45:20;5.53;;;3.60;;
11931;SDS011;6025;51.368;6.788;2023-05-07T06:50:14;3.53;;;3.10;;
11931;SDS011;6025;51.368;6.788;2023-05-07T06:55:09;3.20;;;2.67;;
11931;SDS011;6025;51.368;6.788;2023-05-07T07:00:04;2.85;;;2.50;;
11931;SDS011;6025;51.368;6.788;2023-05-07T07:04:59;4.45;;;2.83;;
11931;SDS011;6025;51.368;6.788;2023-05-07T07:09:51;6.07;;;2.42;;
11931;SDS011;6025;51.368;6.788;2023-05-07T07:14:43;2.38;;;2.00;;
11931;SDS011;6025;51.368;6.788;2023-05-07T07:19:36;2.60;;;2.22;;
11931;SDS011;6025;51.368;6.788;2023-05-07T07:24:29;3.33;;;2.55;;
11931;SDS011;6025;51.368;6.788;2023-05-07T07:29:26;3.15;;;2.00;;
11931;SDS011;6025;51.368;6.788;2023-05-07T07:34:18;3.22;;;2.53;;
11931;SDS011;6025;51.368;6.788;2023-05-07T07:39:16;3.38;;;2.35;;
11931;SDS011;6025;51.368;6.788;2023-05-07T07:44:12;5.03;;;2.30;;
11931;SDS011;6025;51.368;6.788;2023-05-07T07:49:04;2.60;;;2.10;;
11931;SDS011;6025;51.368;6.788;2023-05-07T07:54:06;5.07;;;2.20;;
11931;SDS011;6025;51.368;6.788;2023-05-07T07:59:03;3.13;;;2.10;;
11931;SDS011;6025;51.368;6.788;2023-05-07T08:03:57;3.45;;;2.05;;
11931;SDS011;6025;51.368;6.788;2023-05-07T08:08:53;2.97;;;2.20;;
11931;SDS011;6025;51.368;6.788;2023-05-07T08:13:47;3.75;;;2.10;;
11931;SDS011;6025;51.368;6.788;2023-05-07T08:18:47;3.05;;;2.40;;
11931;SDS011;6025;51.368;6.788;2023-05-07T08:23:45;2.35;;;1.63;;
11931;SDS011;6025;51.368;6.788;2023-05-07T08:28:40;3.05;;;1.90;;
11931;SDS011;6025;51.368;6.788;2023-05-07T08:33:32;3.20;;;1.63;;
11931;SDS011;6025;51.368;6.788;2023-05-07T08:38:27;4.03;;;2.00;;
11931;SDS011;6025;51.368;6.788;2023-05-07T08:43:21;4.45;;;1.77;;
11931;SDS011;6025;51.368;6.788;2023-05-07T08:48:15;2.55;;;2.00;;
11931;SDS011;6025;51.368;6.788;2023-05-07T08:53:14;3.80;;;1.85;;
11931;SDS011;6025;51.368;6.788;2023-05-07T08:58:09;4.35;;;2.50;;
11931;SDS011;6025;51.368;6.788;2023-05-07T09:03:02;4.13;;;1.90;;
11931;SDS011;6025;51.368;6.788;2023-05-07T09:07:58;2.75;;;1.83;;
11931;SDS011;6025;51.368;6.788;2023-05-07T09:12:53;3.15;;;2.03;;
11931;SDS011;6025;51.368;6.788;2023-05-07T09:17:47;2.85;;;1.90;;
11931;SDS011;6025;51.368;6.788;2023-05-07T09:22:40;1.77;;;1.50;;
11931;SDS011;6025;51.368;6.788;2023-05-07T09:27:32;2.08;;;1.63;;
11931;SDS011;6025;51.368;6.788;2023-05-07T09:32:27;2.63;;;1.92;;
11931;SDS011;6025;51.368;6.788;2023-05-07T09:37:25;2.50;;;1.70;;
11931;SDS011;6025;51.368;6.788;2023-05-07T09:42:22;2.42;;;1.67;;
11931;SDS011;6025;51.368;6.788;2023-05-07T09:47:18;3.35;;;1.33;;
11931;SDS011;6025;51.368;6.788;2023-05-07T09:52:33;2.92;;;1.63;;
11931;SDS011;6025;51.368;6.788;2023-05-07T09:57:26;2.83;;;1.58;;
11931;SDS011;6025;51.368;6.788;2023-05-07T10:02:22;2.85;;;1.67;;
11931;SDS011;6025;51.368;6.788;2023-05-07T10:07:20;2.45;;;1.50;;
11931;SDS011;6025;51.368;6.788;2023-05-07T10:12:17;4.22;;;1.70;;
11931;SDS011;6025;51.368;6.788;2023-05-07T10:17:10;2.55;;;1.42;;
11931;SDS011;6025;51.368;6.788;2023-05-07T10:22:05;3.15;;;1.45;;
11931;SDS011;6025;51.368;6.788;2023-05-07T10:27:01;5.88;;;1.83;;
11931;SDS011;6025;51.368;6.788;2023-05-07T10:31:57;2.35;;;1.38;;
11931;SDS011;6025;51.368;6.788;2023-05-07T10:37:00;3.25;;;1.58;;
11931;SDS011;6025;51.368;6.788;2023-05-07T10:41:56;2.50;;;1.33;;
11931;SDS011;6025;51.368;6.788;2023-05-07T10:47:10;1.95;;;1.30;;
11931;SDS011;6025;51.368;6.788;2023-05-07T10:52:12;1.88;;;1.23;;
11931;SDS011;6025;51.368;6.788;2023-05-07T11:08:20;3.63;;;1.40;;
11931;SDS011;6025;51.368;6.788;2023-05-07T11:13:11;2.42;;;1.73;;
11931;SDS011;6025;51.368;6.788;2023-05-07T11:18:03;2.00;;;1.30;;
11931;SDS011;6025;51.368;6.788;2023-05-07T11:22:55;2.47;;;1.40;;
11931;SDS011;6025;51.368;6.788;2023-05-07T11:27:48;3.70;;;1.50;;
11931;SDS011;6025;51.368;6.788;2023-05-07T11:32:40;5.90;;;1.38;;
11931;SDS011;6025;51.368;6.788;2023-05-07T11:37:31;3.03;;;1.70;;
11931;SDS011;6025;51.368;6.788;2023-05-07T11:42:27;2.70;;;1.60;;
11931;SDS011;6025;51.368;6.788;2023-05-07T11:47:20;2.10;;;1.40;;
11931;SDS011;6025;51.368;6.788;2023-05-07T11:52:12;2.70;;;1.40;;
11931;SDS011;6025;51.368;6.788;2023-05-07T11:57:04;2.55;;;1.23;;
11931;SDS011;6025;51.368;6.788;2023-05-07T12:01:57;2.35;;;1.52;;
11931;SDS011;6025;51.368;6.788;2023-05-07T12:06:53;1.80;;;1.50;;
11931;SDS011;6025;51.368;6.788;2023-05-07T12:11:45;3.70;;;1.30;;
11931;SDS011;6025;51.368;6.788;2023-05-07T12:16:37;2.67;;;1.30;;
11931;SDS011;6025;51.368;6.788;2023-05-07T12:21:29;1.35;;;1.25;;
11931;SDS011;6025;51.368;6.788;2023-05-07T12:26:22;2.50;;;1.65;;
11931;SDS011;6025;51.368;6.788;2023-05-07T12:31:14;2.92;;;1.40;;
11931;SDS011;6025;51.368;6.788;2023-05-07T12:36:07;3.63;;;1.85;;
11931;SDS011;6025;51.368;6.788;2023-05-07T12:40:59;2.83;;;1.52;;
11931;SDS011;6025;51.368;6.788;2023-05-07T12:45:54;2.70;;;2.05;;
11931;SDS011;6025;51.368;6.788;2023-05-07T12:50:48;2.20;;;1.90;;
11931;SDS011;6025;51.368;6.788;2023-05-07T12:55:41;2.92;;;2.00;;
11931;SDS011;6025;51.368;6.788;2023-05-07T13:00:34;3.63;;;2.22;;
11931;SDS011;6025;51.368;6.788;2023-05-07T13:05:27;4.60;;;2.40;;
11931;SDS011;6025;51.368;6.788;2023-05-07T13:10:21;3.42;;;2.17;;
11931;SDS011;6025;51.368;6.788;2023-05-07T13:15:13;4.07;;;2.80;;
11931;SDS011;6025;51.368;6.788;2023-05-07T13:20:05;3.70;;;2.83;;
11931;SDS011;6025;51.368;6.788;2023-05-07T13:24:59;4.22;;;2.60;;
11931;SDS011;6025;51.368;6.788;2023-05-07T13:29:51;4.45;;;2.20;;
11931;SDS011;6025;51.368;6.788;2023-05-07T13:34:42;5.80;;;3.00;;
11931;SDS011;6025;51.368;6.788;2023-05-07T13:39:34;3.92;;;2.88;;
11931;SDS011;6025;51.368;6.788;2023-05-07T13:44:27;4.38;;;2.70;;
11931;SDS011;6025;51.368;6.788;2023-05-07T13:49:18;3.47;;;2.70;;
11931;SDS011;6025;51.368;6.788;2023-05-07T13:54:10;2.85;;;2.53;;
11931;SDS011;6025;51.368;6.788;2023-05-07T13:59:01;5.88;;;2.88;;
11931;SDS011;6025;51.368;6.788;2023-05-07T14:03:55;4.18;;;3.22;;
11931;SDS011;6025;51.368;6.788;2023-05-07T14:08:47;4.05;;;3.63;;
11931;SDS011;6025;51.368;6.788;2023-05-07T14:13:38;4.68;;;3.45;;
11931;SDS011;6025;51.368;6.788;2023-05-07T14:18:30;4.38;;;3.80;;
11931;SDS011;6025;51.368;6.788;2023-05-07T14:23:22;5.18;;;4.25;;
11931;SDS011;6025;51.368;6.788;2023-05-07T14:28:16;5.57;;;3.63;;
11931;SDS011;6025;51.368;6.788;2023-05-07T14:33:08;5.13;;;4.00;;
11931;SDS011;6025;51.368;6.788;2023-05-07T14:37:59;4.85;;;4.15;;
11931;SDS011;6025;51.368;6.788;2023-05-07T14:42:52;6.20;;;3.97;;
11931;SDS011;6025;51.368;6.788;2023-05-07T14:47:44;5.18;;;4.03;;
11931;SDS011;6025;51.368;6.788;2023-05-07T14:52:35;4.10;;;3.70;;
11931;SDS011;6025;51.368;6.788;2023-05-07T14:57:27;4.72;;;3.97;;
11931;SDS011;6025;51.368;6.788;2023-05-07T15:02:20;7.82;;;4.32;;
11931;SDS011;6025;51.368;6.788;2023-05-07T15:07:11;5.00;;;4.43;;
11931;SDS011;6025;51.368;6.788;2023-05-07T15:12:05;7.07;;;5.28;;
11931;SDS011;6025;51.368;6.788;2023-05-07T15:16:56;5.72;;;5.13;;
11931;SDS011;6025;51.368;6.788;2023-05-07T15:21:49;6.45;;;4.70;;
11931;SDS011;6025;51.368;6.788;2023-05-07T15:26:40;6.40;;;5.10;;
11931;SDS011;6025;51.368;6.788;2023-05-07T15:31:32;5.70;;;5.10;;
11931;SDS011;6025;51.368;6.788;2023-05-07T15:36:23;7.07;;;5.65;;
11931;SDS011;6025;51.368;6.788;2023-05-07T15:41:16;7.45;;;5.15;;
11931;SDS011;6025;51.368;6.788;2023-05-07T15:46:08;6.63;;;5.22;;
11931;SDS011;6025;51.368;6.788;2023-05-07T15:51:00;7.72;;;5.60;;
11931;SDS011;6025;51.368;6.788;2023-05-07T15:55:52;6.22;;;5.38;;
11931;SDS011;6025;51.368;6.788;2023-05-07T16:00:45;7.55;;;5.32;;
11931;SDS011;6025;51.368;6.788;2023-05-07T16:05:36;6.93;;;5.53;;
11931;SDS011;6025;51.368;6.788;2023-05-07T16:10:28;5.55;;;4.95;;
11931;SDS011;6025;51.368;6.788;2023-05-07T16:15:20;6.53;;;5.22;;
11931;SDS011;6025;51.368;6.788;2023-05-07T16:20:13;8.00;;;6.10;;
11931;SDS011;6025;51.368;6.788;2023-05-07T16:25:10;7.95;;;5.63;;
11931;SDS011;6025;51.368;6.788;2023-05-07T16:30:07;6.13;;;5.20;;
11931;SDS011;6025;51.368;6.788;2023-05-07T16:34:59;6.07;;;5.45;;
11931;SDS011;6025;51.368;6.788;2023-05-07T16:39:53;7.28;;;4.50;;
11931;SDS011;6025;51.368;6.788;2023-05-07T16:44:45;4.45;;;4.05;;
11931;SDS011;6025;51.368;6.788;2023-05-07T16:49:37;4.00;;;3.60;;
11931;SDS011;6025;51.368;6.788;2023-05-07T16:54:29;5.15;;;3.70;;
11931;SDS011;6025;51.368;6.788;2023-05-07T16:59:23;5.13;;;3.75;;
11931;SDS011;6025;51.368;6.788;2023-05-07T17:04:15;3.53;;;3.22;;
11931;SDS011;6025;51.368;6.788;2023-05-07T17:09:14;4.25;;;3.40;;
11931;SDS011;6025;51.368;6.788;2023-05-07T17:14:15;4.70;;;3.17;;
11931;SDS011;6025;51.368;6.788;2023-05-07T17:19:11;3.97;;;2.92;;
11931;SDS011;6025;51.368;6.788;2023-05-07T17:24:03;3.28;;;2.80;;
11931;SDS011;6025;51.368;6.788;2023-05-07T17:28:55;3.65;;;3.28;;
11931;SDS011;6025;51.368;6.788;2023-05-07T17:33:49;3.65;;;3.20;;
11931;SDS011;6025;51.368;6.788;2023-05-07T17:38:43;5.70;;;4.55;;
11931;SDS011;6025;51.368;6.788;2023-05-07T17:43:41;6.13;;;4.13;;
11931;SDS011;6025;51.368;6.788;2023-05-07T17:48:35;4.45;;;3.28;;
11931;SDS011;6025;51.368;6.788;2023-05-07T17:53:30;6.63;;;3.55;;
11931;SDS011;6025;51.368;6.788;2023-05-07T17:58:23;4.47;;;3.53;;
11931;SDS011;6025;51.368;6.788;2023-05-07T18:03:16;5.07;;;3.70;;
11931;SDS011;6025;51.368;6.788;2023-05-07T18:08:08;6.18;;;3.80;;
11931;SDS011;6025;51.368;6.788;2023-05-07T18:13:00;4.53;;;3.70;;
11931;SDS011;6025;51.368;6.788;2023-05-07T18:17:53;5.53;;;4.38;;
11931;SDS011;6025;51.368;6.788;2023-05-07T18:22:48;4.68;;;3.85;;
11931;SDS011;6025;51.368;6.788;2023-05-07T18:27:40;4.57;;;3.83;;
11931;SDS011;6025;51.368;6.788;2023-05-07T18:32:32;6.40;;;4.45;;
11931;SDS011;6025;51.368;6.788;2023-05-07T18:37:31;6.97;;;4.78;;
11931;SDS011;6025;51.368;6.788;2023-05-07T18:42:24;5.93;;;4.85;;
11931;SDS011;6025;51.368;6.788;2023-05-07T18:47:17;5.70;;;4.47;;
11931;SDS011;6025;51.368;6.788;2023-05-07T18:52:10;4.97;;;4.57;;
11931;SDS011;6025;51.368;6.788;2023-05-07T18:57:08;5.25;;;4.75;;
11931;SDS011;6025;51.368;6.788;2023-05-07T19:02:00;4.60;;;4.20;;
11931;SDS011;6025;51.368;6.788;2023-05-07T19:06:52;4.68;;;4.28;;
11931;SDS011;6025;51.368;6.788;2023-05-07T19:11:45;5.75;;;4.30;;
11931;SDS011;6025;51.368;6.788;2023-05-07T19:16:58;5.88;;;4.28;;
11931;SDS011;6025;51.368;6.788;2023-05-07T19:21:50;4.80;;;4.30;;
11931;SDS011;6025;51.368;6.788;2023-05-07T19:26:42;6.20;;;4.88;;
11931;SDS011;6025;51.368;6.788;2023-05-07T19:31:34;7.15;;;5.18;;
11931;SDS011;6025;51.368;6.788;2023-05-07T19:36:27;6.30;;;4.93;;
11931;SDS011;6025;51.368;6.788;2023-05-07T19:41:24;6.78;;;5.03;;
11931;SDS011;6025;51.368;6.788;2023-05-07T19:46:16;8.10;;;5.00;;
11931;SDS011;6025;51.368;6.788;2023-05-07T19:51:09;5.57;;;4.97;;
11931;SDS011;6025;51.368;6.788;2023-05-07T19:56:04;6.25;;;5.00;;
11931;SDS011;6025;51.368;6.788;2023-05-07T20:00:56;9.90;;;8.35;;
11931;SDS011;6025;51.368;6.788;2023-05-07T20:05:48;7.03;;;6.00;;
11931;SDS011;6025;51.368;6.788;2023-05-07T20:10:40;8.27;;;6.18;;
11931;SDS011;6025;51.368;6.788;2023-05-07T20:15:37;7.20;;;6.50;;
11931;SDS011;6025;51.368;6.788;2023-05-07T20:20:33;8.85;;;6.80;;
11931;SDS011;6025;51.368;6.788;2023-05-07T20:25:26;8.20;;;6.45;;
11931;SDS011;6025;51.368;6.788;2023-05-07T20:30:18;8.35;;;6.03;;
11931;SDS011;6025;51.368;6.788;2023-05-07T20:35:14;7.65;;;5.97;;
11931;SDS011;6025;51.368;6.788;2023-05-07T20:40:07;6.95;;;6.22;;
11931;SDS011;6025;51.368;6.788;2023-05-07T20:44:59;6.70;;;6.10;;
11931;SDS011;6025;51.368;6.788;2023-05-07T20:49:52;7.13;;;6.40;;
11931;SDS011;6025;51.368;6.788;2023-05-07T20:54:46;6.95;;;6.13;;
11931;SDS011;6025;51.368;6.788;2023-05-07T20:59:39;9.32;;;6.50;;
11931;SDS011;6025;51.368;6.788;2023-05-07T21:04:30;8.77;;;6.82;;
11931;SDS011;6025;51.368;6.788;2023-05-07T21:09:22;7.65;;;6.85;;
11931;SDS011;6025;51.368;6.788;2023-05-07T21:14:15;7.22;;;6.53;;
11931;SDS011;6025;51.368;6.788;2023-05-07T21:19:07;7.65;;;6.93;;
11931;SDS011;6025;51.368;6.788;2023-05-07T21:23:59;9.05;;;7.03;;
11931;SDS011;6025;51.368;6.788;2023-05-07T21:28:51;10.18;;;7.30;;
11931;SDS011;6025;51.368;6.788;2023-05-07T21:33:45;8.52;;;6.68;;
11931;SDS011;6025;51.368;6.788;2023-05-07T21:38:37;7.45;;;6.72;;
11931;SDS011;6025;51.368;6.788;2023-05-07T21:43:29;7.60;;;6.72;;
11931;SDS011;6025;51.368;6.788;2023-05-07T21:48:21;7.78;;;7.05;;
11931;SDS011;6025;51.368;6.788;2023-05-07T21:53:14;7.70;;;6.88;;
11931;SDS011;6025;51.368;6.788;2023-05-07T21:58:06;8.13;;;6.82;;
11931;SDS011;6025;51.368;6.788;2023-05-07T22:02:58;9.85;;;6.57;;
11931;SDS011;6025;51.368;6.788;2023-05-07T22:07:49;7.22;;;6.53;;
11931;SDS011;6025;51.368;6.788;2023-05-07T22:12:42;7.35;;;6.65;;
11931;SDS011;6025;51.368;6.788;2023-05-07T22:17:34;6.72;;;6.13;;
11931;SDS011;6025;51.368;6.788;2023-05-07T22:22:26;9.65;;;6.47;;
11931;SDS011;6025;51.368;6.788;2023-05-07T22:27:18;8.40;;;6.40;;
11931;SDS011;6025;51.368;6.788;2023-05-07T22:32:11;8.50;;;6.68;;
11931;SDS011;6025;51.368;6.788;2023-05-07T22:37:03;7.07;;;6.38;;
11931;SDS011;6025;51.368;6.788;2023-05-07T22:41:55;9.65;;;7.40;;
11931;SDS011;6025;51.368;6.788;2023-05-07T22:46:46;7.55;;;6.82;;
11931;SDS011;6025;51.368;6.788;2023-05-07T22:51:40;8.30;;;7.28;;
11931;SDS011;6025;51.368;6.788;2023-05-07T22:56:31;10.38;;;7.10;;
11931;SDS011;6025;51.368;6.788;2023-05-07T23:01:23;10.05;;;6.90;;
11931;SDS011;6025;51.368;6.788;2023-05-07T23:06:15;7.65;;;6.95;;
11931;SDS011;6025;51.368;6.788;2023-05-07T23:11:08;8.40;;;7.53;;
11931;SDS011;6025;51.368;6.788;2023-05-07T23:16:00;8.68;;;7.63;;
11931;SDS011;6025;51.368;6.788;2023-05-07T23:20:52;8.23;;;7.43;;
11931;SDS011;6025;51.368;6.788;2023-05-07T23:25:43;8.18;;;7.30;;
11931;SDS011;6025;51.368;6.788;2023-05-07T23:30:38;9.20;;;7.13;;
11931;SDS011;6025;51.368;6.788;2023-05-07T23:35:30;8.48;;;7.68;;
11931;SDS011;6025;51.368;6.788;2023-05-07T23:40:22;8.38;;;7.50;;
11931;SDS011;6025;51.368;6.788;2023-05-07T23:45:16;8.57;;;7.68;;
11931;SDS011;6025;51.368;6.788;2023-05-07T23:50:09;9.80;;;7.70;;
11931;SDS011;6025;51.368;6.788;2023-05-07T23:55:01;9.43;;;8.00;;
11931;SDS011;6025;51.368;6.788;2023-05-07T23:59:53;8.00;;;7.20;;
